createdAt,value
2022-11-07T00:00:35.340Z,-0.89
2022-11-07T00:03:04.487Z,-0.89
2022-11-07T00:05:33.449Z,-0.90
2022-11-07T00:08:03.732Z,-0.90
2022-11-07T00:10:32.643Z,-0.89
2022-11-07T00:13:01.985Z,-0.89
2022-11-07T00:15:30.930Z,-0.90
2022-11-07T00:17:59.934Z,-0.89
2022-11-07T00:20:28.818Z,-0.91
2022-11-07T00:22:57.684Z,-0.91
2022-11-07T00:25:28.084Z,-0.91
2022-11-07T00:27:57.035Z,-0.90
2022-11-07T00:30:26.146Z,-0.89
2022-11-07T00:32:59.851Z,-0.88
2022-11-07T00:35:29.296Z,-0.88
2022-11-07T00:37:58.298Z,-0.87
2022-11-07T00:40:28.671Z,-0.90
2022-11-07T00:42:57.572Z,-0.91
2022-11-07T00:45:26.467Z,-0.88
2022-11-07T00:47:55.307Z,-0.86
2022-11-07T00:50:24.142Z,-0.84
2022-11-07T00:52:53.052Z,-0.85
2022-11-07T00:55:21.943Z,-0.87
2022-11-07T00:57:52.506Z,-0.87
2022-11-07T01:00:21.627Z,-0.88
2022-11-07T01:03:10.555Z,-0.91
2022-11-07T01:05:38.515Z,-0.91
2022-11-07T01:08:08.236Z,-0.91
2022-11-07T01:10:42.757Z,-0.94
2022-11-07T01:13:13.453Z,-0.96
2022-11-07T01:15:42.918Z,-0.98
2022-11-07T01:18:12.110Z,-1.00
2022-11-07T01:20:43.859Z,-0.99
2022-11-07T01:23:13.069Z,-1.00
2022-11-07T01:25:42.708Z,-1.02
2022-11-07T01:28:13.287Z,-1.02
2022-11-07T01:30:43.179Z,-1.02
2022-11-07T01:33:12.966Z,-1.01
2022-11-07T01:35:42.383Z,-1.02
2022-11-07T01:38:11.493Z,-1.02
2022-11-07T01:40:58.477Z,-1.02
2022-11-07T01:43:45.681Z,-1.03
2022-11-07T01:46:14.982Z,-1.03
2022-11-07T01:48:48.774Z,-1.03
2022-11-07T01:51:19.871Z,-1.03
2022-11-07T01:53:49.350Z,-1.02
2022-11-07T01:56:23.204Z,-1.01
2022-11-07T01:58:55.565Z,-1.01
2022-11-07T02:01:25.220Z,-1.00
2022-11-07T02:03:56.131Z,-0.98
2022-11-07T02:06:33.649Z,-0.96
2022-11-07T02:09:02.860Z,-0.96
2022-11-07T02:11:32.562Z,-0.97
2022-11-07T02:14:02.918Z,-0.96
2022-11-07T02:16:33.147Z,-0.96
2022-11-07T02:19:03.371Z,-0.96
2022-11-07T02:21:48.388Z,-0.95
2022-11-07T02:24:26.282Z,-0.92
2022-11-07T02:26:57.282Z,-0.94
2022-11-07T02:29:28.202Z,-0.93
2022-11-07T02:32:04.180Z,-0.94
2022-11-07T02:34:33.306Z,-0.94
2022-11-07T02:37:04.727Z,-0.92
2022-11-07T02:39:35.459Z,-0.90
2022-11-07T02:42:06.538Z,-0.90
2022-11-07T02:44:35.913Z,-0.89
2022-11-07T02:47:05.064Z,-0.90
2022-11-07T02:49:33.963Z,-0.89
2022-11-07T02:52:02.964Z,-0.89
2022-11-07T02:54:31.892Z,-0.89
2022-11-07T02:57:02.205Z,-0.86
2022-11-07T02:59:31.135Z,-0.85
2022-11-07T03:02:00.138Z,-0.84
2022-11-07T03:04:29.161Z,-0.81
2022-11-07T03:06:58.066Z,-0.79
2022-11-07T03:09:26.972Z,-0.80
2022-11-07T03:11:55.846Z,-0.79
2022-11-07T03:14:26.440Z,-0.76
2022-11-07T03:16:55.388Z,-0.75
2022-11-07T03:19:24.286Z,-0.72
2022-11-07T03:21:53.655Z,-0.72
2022-11-07T03:24:22.570Z,-0.67
2022-11-07T03:26:51.583Z,-0.66
2022-11-07T03:29:20.504Z,-0.62
2022-11-07T03:31:50.774Z,-0.60
2022-11-07T03:34:19.653Z,-0.57
2022-11-07T03:36:48.720Z,-0.57
2022-11-07T03:39:20.608Z,-0.58
2022-11-07T03:41:53.625Z,-0.56
2022-11-07T03:44:22.526Z,-0.56
2022-11-07T03:46:52.985Z,-0.54
2022-11-07T03:49:22.001Z,-0.54
2022-11-07T03:51:51.164Z,-0.53
2022-11-07T03:54:20.476Z,-0.52
2022-11-07T03:56:49.553Z,-0.50
2022-11-07T03:59:18.441Z,-0.46
2022-11-07T04:01:47.440Z,-0.47
2022-11-07T04:04:17.898Z,-0.46
2022-11-07T04:06:46.860Z,-0.45
2022-11-07T04:09:16.080Z,-0.42
2022-11-07T04:12:02.448Z,-0.40
2022-11-07T04:14:48.648Z,-0.38
2022-11-07T04:17:20.548Z,-0.36
2022-11-07T04:19:52.831Z,-0.34
2022-11-07T04:22:21.837Z,-0.32
2022-11-07T04:24:50.770Z,-0.32
2022-11-07T04:27:37.822Z,-0.29
2022-11-07T04:30:20.164Z,-0.31
2022-11-07T04:32:50.291Z,-0.29
2022-11-07T04:35:21.644Z,-0.25
2022-11-07T04:37:50.575Z,-0.28
2022-11-07T04:40:20.422Z,-0.27
2022-11-07T04:42:50.332Z,-0.26
2022-11-07T04:45:19.346Z,-0.25
2022-11-07T04:47:48.441Z,-0.25
2022-11-07T04:50:20.783Z,-0.21
2022-11-07T04:52:49.782Z,-0.19
2022-11-07T04:55:22.116Z,-0.21
2022-11-07T04:57:51.178Z,-0.20
2022-11-07T05:00:21.795Z,-0.17
2022-11-07T05:02:53.976Z,-0.13
2022-11-07T05:05:24.575Z,-0.11
2022-11-07T05:07:53.543Z,-0.09
2022-11-07T05:10:25.325Z,-0.07
2022-11-07T05:12:56.317Z,-0.04
2022-11-07T05:15:25.758Z,-0.01
2022-11-07T05:17:55.098Z,0.02
2022-11-07T05:20:34.154Z,0.04
2022-11-07T05:23:17.944Z,0.06
2022-11-07T05:25:49.332Z,0.09
2022-11-07T05:28:28.073Z,0.13
2022-11-07T05:31:01.730Z,0.27
2022-11-07T05:33:31.183Z,0.29
2022-11-07T05:36:12.197Z,0.35
2022-11-07T05:38:43.278Z,0.42
2022-11-07T05:41:12.819Z,0.42
2022-11-07T05:43:42.200Z,0.45
2022-11-07T05:46:11.589Z,0.46
2022-11-07T05:48:41.717Z,0.47
2022-11-07T05:51:12.060Z,0.49
2022-11-07T05:53:41.148Z,0.47
2022-11-07T05:56:10.246Z,0.50
2022-11-07T05:58:39.686Z,0.49
2022-11-07T06:01:08.863Z,0.56
2022-11-07T06:03:37.793Z,0.64
2022-11-07T06:06:07.577Z,0.71
2022-11-07T06:08:38.307Z,0.76
2022-11-07T06:11:07.557Z,0.80
2022-11-07T06:13:36.452Z,0.86
2022-11-07T06:16:06.482Z,0.88
2022-11-07T06:18:41.561Z,0.85
2022-11-07T06:21:10.858Z,0.87
2022-11-07T06:23:41.169Z,0.87
2022-11-07T06:26:10.696Z,0.89
2022-11-07T06:28:39.732Z,0.96
2022-11-07T06:31:08.843Z,1.01
2022-11-07T06:33:37.714Z,1.07
2022-11-07T06:36:08.611Z,1.14
2022-11-07T06:38:37.972Z,1.17
2022-11-07T06:41:10.532Z,1.21
2022-11-07T06:43:40.251Z,1.25
2022-11-07T06:46:11.071Z,1.24
2022-11-07T06:48:40.451Z,1.31
2022-11-07T06:51:11.083Z,1.31
2022-11-07T06:53:40.320Z,1.31
2022-11-07T06:56:15.270Z,1.28
2022-11-07T06:58:44.380Z,1.32
2022-11-07T07:01:15.266Z,1.39
2022-11-07T07:03:45.211Z,1.33
2022-11-07T07:06:16.344Z,1.41
2022-11-07T07:08:46.852Z,1.48
2022-11-07T07:11:18.036Z,1.46
2022-11-07T07:13:47.067Z,1.49
2022-11-07T07:16:16.349Z,1.49
2022-11-07T07:18:46.942Z,1.49
2022-11-07T07:21:16.221Z,1.52
2022-11-07T07:23:45.099Z,1.59
2022-11-07T07:26:17.293Z,1.75
2022-11-07T07:28:46.187Z,1.90
2022-11-07T07:31:23.042Z,2.07
2022-11-07T07:33:52.311Z,2.17
2022-11-07T07:36:21.926Z,2.19
2022-11-07T07:38:51.374Z,2.27
2022-11-07T07:41:22.222Z,2.37
2022-11-07T07:43:51.285Z,2.41
2022-11-07T07:46:24.333Z,2.44
2022-11-07T07:48:53.362Z,2.48
2022-11-07T07:51:22.942Z,2.53
2022-11-07T07:53:51.920Z,2.49
2022-11-07T07:56:22.399Z,2.48
2022-11-07T07:58:51.331Z,2.32
2022-11-07T08:01:20.559Z,2.29
2022-11-07T08:04:05.011Z,2.26
2022-11-07T08:06:35.263Z,2.30
2022-11-07T08:09:04.255Z,2.34
2022-11-07T08:11:34.716Z,2.30
2022-11-07T08:14:03.812Z,2.36
2022-11-07T08:16:32.964Z,2.40
2022-11-07T08:19:01.916Z,2.51
2022-11-07T08:21:30.863Z,2.54
2022-11-07T08:24:01.124Z,2.57
2022-11-07T08:26:31.632Z,2.63
2022-11-07T08:29:04.399Z,2.66
2022-11-07T08:31:36.413Z,2.76
2022-11-07T08:34:05.762Z,2.85
2022-11-07T08:36:34.846Z,2.97
2022-11-07T08:39:03.759Z,3.02
2022-11-07T08:41:32.726Z,2.97
2022-11-07T08:44:01.771Z,3.01
2022-11-07T08:46:32.139Z,2.95
2022-11-07T08:49:01.370Z,3.01
2022-11-07T08:51:30.285Z,3.05
2022-11-07T08:53:59.360Z,3.14
2022-11-07T08:56:28.324Z,3.02
2022-11-07T08:58:57.229Z,2.91
2022-11-07T09:01:26.324Z,2.75
2022-11-07T09:03:58.486Z,2.66
2022-11-07T09:06:27.931Z,2.63
2022-11-07T09:08:56.930Z,2.79
2022-11-07T09:11:25.971Z,2.79
2022-11-07T09:13:56.353Z,2.87
2022-11-07T09:16:25.962Z,2.88
2022-11-07T09:18:56.706Z,2.86
2022-11-07T09:21:26.132Z,2.91
2022-11-07T09:23:55.379Z,2.82
2022-11-07T09:26:24.365Z,2.74
2022-11-07T09:28:57.343Z,2.70
2022-11-07T09:31:30.109Z,2.77
2022-11-07T09:34:00.601Z,2.88
2022-11-07T09:36:29.717Z,2.87
2022-11-07T09:38:59.330Z,2.91
2022-11-07T09:41:40.567Z,3.00
2022-11-07T09:44:34.285Z,3.10
2022-11-07T09:47:08.216Z,3.10
2022-11-07T09:49:40.207Z,3.03
2022-11-07T09:52:19.603Z,2.90
2022-11-07T09:54:53.831Z,2.89
2022-11-07T09:57:24.399Z,2.96
2022-11-07T09:59:56.460Z,2.87
2022-11-07T10:02:28.734Z,2.84
2022-11-07T10:05:03.225Z,2.90
2022-11-07T10:07:43.158Z,2.80
2022-11-07T10:10:19.338Z,2.93
2022-11-07T10:13:12.520Z,3.16
2022-11-07T10:15:52.262Z,3.22
2022-11-07T10:18:31.251Z,3.26
2022-11-07T10:21:37.177Z,3.34
2022-11-07T10:24:24.405Z,3.38
2022-11-07T10:26:54.924Z,3.46
2022-11-07T10:29:26.656Z,3.50
2022-11-07T10:31:59.323Z,3.55
2022-11-07T10:34:35.659Z,3.40
2022-11-07T10:37:06.361Z,3.53
2022-11-07T10:39:35.339Z,3.60
2022-11-07T10:42:08.504Z,3.51
2022-11-07T10:44:40.233Z,3.54
2022-11-07T10:47:17.293Z,3.57
2022-11-07T10:49:56.904Z,3.56
2022-11-07T10:52:28.967Z,3.48
2022-11-07T10:55:09.076Z,3.47
2022-11-07T10:57:38.688Z,3.46
2022-11-07T11:00:24.071Z,3.57
2022-11-07T11:02:54.052Z,3.61
2022-11-07T11:05:29.876Z,3.65
2022-11-07T11:08:16.860Z,3.59
2022-11-07T11:10:46.518Z,3.46
2022-11-07T11:13:28.665Z,3.37
2022-11-07T11:16:05.297Z,3.29
2022-11-07T11:18:34.849Z,3.21
2022-11-07T11:21:06.854Z,3.16
2022-11-07T11:23:38.974Z,3.10
2022-11-07T11:26:15.976Z,3.04
2022-11-07T11:28:49.231Z,3.03
2022-11-07T11:31:26.237Z,2.94
2022-11-07T11:33:59.963Z,2.94
2022-11-07T11:36:34.564Z,2.88
2022-11-07T11:39:14.286Z,2.88
2022-11-07T11:41:51.775Z,2.88
2022-11-07T11:44:25.044Z,2.86
2022-11-07T11:47:01.085Z,2.83
2022-11-07T11:49:33.762Z,2.73
2022-11-07T11:52:08.594Z,2.63
2022-11-07T11:54:39.244Z,2.60
2022-11-07T11:57:14.479Z,2.48
2022-11-07T11:59:58.925Z,2.41
2022-11-07T12:02:50.198Z,2.33
2022-11-07T12:05:34.997Z,2.22
2022-11-07T12:08:20.745Z,2.19
2022-11-07T12:10:58.657Z,2.19
2022-11-07T12:13:39.215Z,2.15
2022-11-07T12:16:23.394Z,2.13
2022-11-07T12:19:01.608Z,2.08
2022-11-07T12:21:33.926Z,2.09
2022-11-07T12:24:27.104Z,2.08
2022-11-07T12:27:06.810Z,2.03
2022-11-07T12:29:53.705Z,1.99
2022-11-07T12:32:31.312Z,1.95
2022-11-07T12:35:12.744Z,1.92
2022-11-07T12:38:01.947Z,1.91
2022-11-07T12:40:38.926Z,1.85
2022-11-07T12:43:22.983Z,1.81
2022-11-07T12:45:58.493Z,1.80
2022-11-07T12:49:01.436Z,1.79
2022-11-07T12:51:43.984Z,1.76
2022-11-07T12:54:37.788Z,1.70
2022-11-07T12:57:15.351Z,1.72
2022-11-07T12:59:50.955Z,1.67
2022-11-07T13:02:30.770Z,1.64
2022-11-07T13:05:07.359Z,1.62
2022-11-07T13:07:41.496Z,1.61
2022-11-07T13:10:17.113Z,1.59
2022-11-07T13:12:52.459Z,1.59
2022-11-07T13:15:23.214Z,1.58
2022-11-07T13:17:52.276Z,1.58
2022-11-07T13:20:30.510Z,1.59
2022-11-07T13:23:01.216Z,1.57
2022-11-07T13:25:32.275Z,1.57
2022-11-07T13:28:08.197Z,1.55
2022-11-07T13:30:40.407Z,1.54
2022-11-07T13:33:28.149Z,1.52
2022-11-07T13:35:59.692Z,1.50
2022-11-07T13:38:29.896Z,1.52
2022-11-07T13:41:04.092Z,1.52
2022-11-07T13:43:41.571Z,1.50
2022-11-07T13:46:20.848Z,1.49
2022-11-07T13:48:53.181Z,1.48
2022-11-07T13:51:27.601Z,1.46
2022-11-07T13:54:08.108Z,1.48
2022-11-07T13:56:43.599Z,1.49
2022-11-07T13:59:22.001Z,1.49
2022-11-07T14:01:57.707Z,1.48
2022-11-07T14:04:29.356Z,1.46
2022-11-07T14:07:01.188Z,1.46
2022-11-07T14:09:32.911Z,1.48
2022-11-07T14:12:02.087Z,1.45
2022-11-07T14:14:31.481Z,1.44
2022-11-07T14:17:01.995Z,1.44
2022-11-07T14:19:31.282Z,1.45
2022-11-07T14:22:01.610Z,1.44
2022-11-07T14:24:32.772Z,1.45
2022-11-07T14:27:03.989Z,1.44
2022-11-07T14:29:33.912Z,1.43
2022-11-07T14:32:06.513Z,1.44
2022-11-07T14:34:37.022Z,1.43
2022-11-07T14:37:08.559Z,1.44
2022-11-07T14:39:37.903Z,1.45
2022-11-07T14:42:07.102Z,1.45
2022-11-07T14:44:53.908Z,1.46
2022-11-07T14:47:29.501Z,1.44
2022-11-07T14:50:01.696Z,1.44
2022-11-07T14:52:38.637Z,1.46
2022-11-07T14:55:14.097Z,1.46
2022-11-07T14:57:43.558Z,1.47
2022-11-07T15:00:16.910Z,1.44
2022-11-07T15:02:49.683Z,1.44
2022-11-07T15:05:28.139Z,1.41
2022-11-07T15:07:58.486Z,1.38
2022-11-07T15:10:34.419Z,1.40
2022-11-07T15:13:05.558Z,1.39
2022-11-07T15:15:36.927Z,1.43
2022-11-07T15:18:08.282Z,1.42
2022-11-07T15:20:39.852Z,1.43
2022-11-07T15:23:29.206Z,1.43
2022-11-07T15:26:01.305Z,1.41
2022-11-07T15:28:32.671Z,1.42
2022-11-07T15:31:02.634Z,1.41
2022-11-07T15:33:34.293Z,1.42
2022-11-07T15:36:03.775Z,1.43
2022-11-07T15:38:32.974Z,1.42
2022-11-07T15:41:02.041Z,1.42
2022-11-07T15:43:31.190Z,1.41
2022-11-07T15:46:02.299Z,1.43
2022-11-07T15:48:41.031Z,1.41
2022-11-07T15:51:11.564Z,1.38
2022-11-07T15:53:40.756Z,1.37
2022-11-07T15:56:15.211Z,1.35
2022-11-07T15:58:44.655Z,1.35
2022-11-07T16:01:14.508Z,1.39
2022-11-07T16:03:45.237Z,1.39
2022-11-07T16:06:27.677Z,1.40
2022-11-07T16:08:57.522Z,1.41
2022-11-07T16:11:27.221Z,1.42
2022-11-07T16:14:21.676Z,1.42
2022-11-07T16:16:49.076Z,1.42
2022-11-07T16:19:22.363Z,1.42
2022-11-07T16:21:51.838Z,1.39
2022-11-07T16:24:20.964Z,1.40
2022-11-07T16:26:52.916Z,1.39
2022-11-07T16:29:22.325Z,1.38
2022-11-07T16:31:51.405Z,1.40
2022-11-07T16:34:21.983Z,1.39
2022-11-07T16:36:51.006Z,1.39
2022-11-07T16:39:21.852Z,1.39
2022-11-07T16:41:51.512Z,1.40
2022-11-07T16:44:28.056Z,1.39
2022-11-07T16:46:57.902Z,1.40
2022-11-07T16:49:30.834Z,1.38
2022-11-07T16:52:00.111Z,1.36
2022-11-07T16:54:29.428Z,1.36
2022-11-07T16:56:58.532Z,1.35
2022-11-07T16:59:27.717Z,1.31
2022-11-07T17:01:57.667Z,1.33
2022-11-07T17:04:28.264Z,1.32
2022-11-07T17:07:01.398Z,1.31
2022-11-07T17:09:30.748Z,1.34
2022-11-07T17:11:59.967Z,1.34
2022-11-07T17:14:29.014Z,1.35
2022-11-07T17:17:00.837Z,1.35
2022-11-07T17:19:31.487Z,1.31
2022-11-07T17:22:02.967Z,1.31
2022-11-07T17:24:32.427Z,1.34
2022-11-07T17:27:01.810Z,1.31
2022-11-07T17:29:31.107Z,1.33
2022-11-07T17:32:00.251Z,1.33
2022-11-07T17:34:30.669Z,1.31
2022-11-07T17:37:01.360Z,1.29
2022-11-07T17:39:30.388Z,1.26
2022-11-07T17:41:59.884Z,1.25
2022-11-07T17:44:28.901Z,1.27
2022-11-07T17:47:01.912Z,1.31
2022-11-07T17:49:32.593Z,1.29
2022-11-07T17:52:01.714Z,1.25
2022-11-07T17:54:30.921Z,1.25
2022-11-07T17:56:59.910Z,1.28
2022-11-07T17:59:28.961Z,1.29
2022-11-07T18:01:58.094Z,1.25
2022-11-07T18:04:27.246Z,1.24
2022-11-07T18:06:57.712Z,1.25
2022-11-07T18:09:26.694Z,1.24
2022-11-07T18:11:55.848Z,1.24
2022-11-07T18:14:25.248Z,1.25
2022-11-07T18:16:54.309Z,1.25
2022-11-07T18:19:23.499Z,1.27
2022-11-07T18:21:54.228Z,1.27
2022-11-07T18:24:26.794Z,1.25
2022-11-07T18:26:55.828Z,1.26
2022-11-07T18:29:24.950Z,1.25
2022-11-07T18:31:53.947Z,1.27
2022-11-07T18:34:23.052Z,1.27
2022-11-07T18:36:52.350Z,1.26
2022-11-07T18:39:23.314Z,1.26
2022-11-07T18:41:54.361Z,1.26
2022-11-07T18:44:23.476Z,1.25
2022-11-07T18:46:52.548Z,1.23
2022-11-07T18:49:21.473Z,1.23
2022-11-07T18:51:50.363Z,1.25
2022-11-07T18:54:19.430Z,1.23
2022-11-07T18:56:48.926Z,1.24
2022-11-07T18:59:19.259Z,1.26
2022-11-07T19:01:48.307Z,1.28
2022-11-07T19:04:17.348Z,1.27
2022-11-07T19:06:57.301Z,1.24
2022-11-07T19:09:29.042Z,1.26
2022-11-07T19:11:58.283Z,1.27
2022-11-07T19:14:30.726Z,1.27
2022-11-07T19:17:00.209Z,1.27
2022-11-07T19:19:29.398Z,1.28
2022-11-07T19:21:58.446Z,1.27
2022-11-07T19:24:27.344Z,1.29
2022-11-07T19:26:56.304Z,1.27
2022-11-07T19:29:26.034Z,1.26
2022-11-07T19:31:56.352Z,1.25
2022-11-07T19:34:25.968Z,1.24
2022-11-07T19:36:55.834Z,1.25
2022-11-07T19:39:28.132Z,1.25
2022-11-07T19:41:57.395Z,1.26
2022-11-07T19:44:26.256Z,1.27
2022-11-07T19:46:56.625Z,1.30
2022-11-07T19:49:25.534Z,1.28
2022-11-07T19:51:54.441Z,1.29
2022-11-07T19:54:23.374Z,1.28
2022-11-07T19:56:57.230Z,1.28
2022-11-07T19:59:26.678Z,1.30
2022-11-07T20:02:25.904Z,1.30
2022-11-07T20:04:46.937Z,1.30
2022-11-07T20:07:16.186Z,1.33
2022-11-07T20:09:47.798Z,1.33
2022-11-07T20:12:17.023Z,1.33
2022-11-07T20:14:46.094Z,1.34
2022-11-07T20:17:16.652Z,1.33
2022-11-07T20:19:45.953Z,1.32
2022-11-07T20:22:14.928Z,1.30
2022-11-07T20:24:43.882Z,1.26
2022-11-07T20:27:12.807Z,1.29
2022-11-07T20:29:41.738Z,1.32
2022-11-07T20:32:11.927Z,1.34
2022-11-07T20:34:42.385Z,1.34
2022-11-07T20:37:11.424Z,1.32
2022-11-07T20:39:44.354Z,1.32
2022-11-07T20:42:13.960Z,1.37
2022-11-07T20:44:43.330Z,1.34
2022-11-07T20:47:12.750Z,1.34
2022-11-07T20:49:44.065Z,1.36
2022-11-07T20:52:13.019Z,1.37
2022-11-07T20:54:41.914Z,1.35
2022-11-07T20:57:10.963Z,1.35
2022-11-07T20:59:41.439Z,1.35
2022-11-07T21:02:14.992Z,1.36
2022-11-07T21:05:11.381Z,1.36
2022-11-07T21:07:34.332Z,1.37
2022-11-07T21:10:03.338Z,1.38
2022-11-07T21:12:33.388Z,1.39
2022-11-07T21:15:02.933Z,1.38
2022-11-07T21:17:33.305Z,1.37
2022-11-07T21:20:04.142Z,1.37
2022-11-07T21:22:35.286Z,1.37
2022-11-07T21:25:05.565Z,1.38
2022-11-07T21:27:37.017Z,1.40
2022-11-07T21:30:08.726Z,1.41
2022-11-07T21:32:39.513Z,1.44
2022-11-07T21:35:10.996Z,1.43
2022-11-07T21:37:40.469Z,1.43
2022-11-07T21:40:10.790Z,1.45
2022-11-07T21:42:39.815Z,1.44
2022-11-07T21:45:10.043Z,1.43
2022-11-07T21:47:43.282Z,1.45
2022-11-07T21:50:42.521Z,1.43
2022-11-07T21:53:06.534Z,1.45
2022-11-07T21:55:35.733Z,1.44
2022-11-07T21:58:05.390Z,1.42
2022-11-07T22:00:36.482Z,1.45
2022-11-07T22:03:06.138Z,1.44
2022-11-07T22:05:39.866Z,1.43
2022-11-07T22:08:08.819Z,1.47
2022-11-07T22:10:38.030Z,1.45
2022-11-07T22:13:07.338Z,1.44
2022-11-07T22:15:36.325Z,1.45
2022-11-07T22:18:05.437Z,1.46
2022-11-07T22:20:34.357Z,1.47
2022-11-07T22:23:04.686Z,1.47
2022-11-07T22:25:34.192Z,1.48
2022-11-07T22:28:03.116Z,1.46
2022-11-07T22:30:32.129Z,1.43
2022-11-07T22:33:01.594Z,1.46
2022-11-07T22:35:30.770Z,1.46
2022-11-07T22:37:59.671Z,1.46
2022-11-07T22:40:30.034Z,1.48
2022-11-07T22:42:58.936Z,1.50
2022-11-07T22:45:28.166Z,1.52
2022-11-07T22:47:57.028Z,1.53
2022-11-07T22:50:25.974Z,1.50
2022-11-07T22:52:54.909Z,1.47
2022-11-07T22:55:24.170Z,1.46
2022-11-07T22:57:54.788Z,1.46
2022-11-07T23:00:23.983Z,1.48
2022-11-07T23:02:52.999Z,1.49
2022-11-07T23:05:21.939Z,1.52
2022-11-07T23:07:51.473Z,1.54
2022-11-07T23:10:21.074Z,1.57
2022-11-07T23:12:50.096Z,1.58
2022-11-07T23:15:20.645Z,1.56
2022-11-07T23:17:49.591Z,1.54
2022-11-07T23:20:32.325Z,1.50
2022-11-07T23:23:03.092Z,1.51
2022-11-07T23:25:32.585Z,1.52
2022-11-07T23:28:01.695Z,1.54
2022-11-07T23:30:31.968Z,1.54
2022-11-07T23:33:00.925Z,1.55
2022-11-07T23:35:32.620Z,1.57
2022-11-07T23:38:01.653Z,1.58
2022-11-07T23:40:30.569Z,1.58
2022-11-07T23:42:59.447Z,1.57
2022-11-07T23:45:45.691Z,1.57
2022-11-07T23:48:33.576Z,1.58
2022-11-07T23:51:05.459Z,1.58
2022-11-07T23:53:52.066Z,1.58
2022-11-07T23:56:22.156Z,1.60
2022-11-07T23:59:09.207Z,1.61
